3J7

Greene County Regional Airport

Greensboro, Georgia, USA
METAR K3J7 210855Z AUTO 00000KT 10SM CLR 08/03 A3029 RMK AO2
Observed Flight Rules
Apr-21 @ 08:55 UTC (56 minutes ago) Visual Flight Rules
Visibility Clouds
10 miles
  • Clear skies
Temperatures Readings
Current 8°C / 46°F
Dewpoint 3°C / 37°F
Humidity 71%
Altimeter 30.29" Hg
Pressure 1026 hPa
Elevation 206
METAR K3J7 210855Z AUTO 00000KT 10SM CLR 08/03 A3029 RMK AO2
Observed Flight Rules
Apr-21 @ 08:55 UTC
(56 minutes ago)
VFR
Clouds
  • Clear skies
Temperature Dewpoint
8°C / 46°F 3°C / 37°F
Humidity Altimeter Pressure
71% 30.29" Hg 1026 hPa